sensor_id;sensor_type;location;lat;lon;timestamp;P1;durP1;ratioP1;P2;durP2;ratioP2
23242;SDS011;11790;49.578;11.214;2022-07-23T00:00:48;11.75;;;7.47;;
23242;SDS011;11790;49.578;11.214;2022-07-23T00:05:48;10.50;;;7.38;;
23242;SDS011;11790;49.578;11.214;2022-07-23T00:10:48;9.07;;;7.30;;
23242;SDS011;11790;49.578;11.214;2022-07-23T00:15:48;8.15;;;7.00;;
23242;SDS011;11790;49.578;11.214;2022-07-23T00:20:49;8.70;;;7.80;;
23242;SDS011;11790;49.578;11.214;2022-07-23T00:25:49;10.53;;;8.23;;
23242;SDS011;11790;49.578;11.214;2022-07-23T00:30:49;9.82;;;8.13;;
23242;SDS011;11790;49.578;11.214;2022-07-23T00:35:49;11.00;;;8.63;;
23242;SDS011;11790;49.578;11.214;2022-07-23T00:40:50;11.63;;;8.35;;
23242;SDS011;11790;49.578;11.214;2022-07-23T00:45:50;11.15;;;8.73;;
23242;SDS011;11790;49.578;11.214;2022-07-23T00:50:50;10.53;;;9.23;;
23242;SDS011;11790;49.578;11.214;2022-07-23T00:55:50;13.35;;;9.18;;
23242;SDS011;11790;49.578;11.214;2022-07-23T01:00:51;12.18;;;9.68;;
23242;SDS011;11790;49.578;11.214;2022-07-23T01:05:51;11.15;;;8.90;;
23242;SDS011;11790;49.578;11.214;2022-07-23T01:10:51;15.05;;;9.27;;
23242;SDS011;11790;49.578;11.214;2022-07-23T01:15:52;11.82;;;9.07;;
23242;SDS011;11790;49.578;11.214;2022-07-23T01:20:52;15.27;;;9.93;;
23242;SDS011;11790;49.578;11.214;2022-07-23T01:25:53;11.25;;;9.07;;
23242;SDS011;11790;49.578;11.214;2022-07-23T01:30:53;11.02;;;8.75;;
23242;SDS011;11790;49.578;11.214;2022-07-23T01:35:53;11.10;;;9.23;;
23242;SDS011;11790;49.578;11.214;2022-07-23T01:40:54;11.00;;;9.20;;
23242;SDS011;11790;49.578;11.214;2022-07-23T01:45:54;12.35;;;9.75;;
23242;SDS011;11790;49.578;11.214;2022-07-23T01:50:54;11.27;;;9.63;;
23242;SDS011;11790;49.578;11.214;2022-07-23T01:55:54;9.55;;;8.35;;
23242;SDS011;11790;49.578;11.214;2022-07-23T02:00:55;24.05;;;10.00;;
23242;SDS011;11790;49.578;11.214;2022-07-23T02:05:55;11.63;;;9.05;;
23242;SDS011;11790;49.578;11.214;2022-07-23T02:10:55;12.40;;;9.40;;
23242;SDS011;11790;49.578;11.214;2022-07-23T02:15:55;10.98;;;9.68;;
23242;SDS011;11790;49.578;11.214;2022-07-23T02:20:56;12.40;;;9.07;;
23242;SDS011;11790;49.578;11.214;2022-07-23T02:25:56;14.15;;;9.60;;
23242;SDS011;11790;49.578;11.214;2022-07-23T02:30:56;13.38;;;9.30;;
23242;SDS011;11790;49.578;11.214;2022-07-23T02:35:56;12.52;;;9.88;;
23242;SDS011;11790;49.578;11.214;2022-07-23T02:40:56;12.20;;;10.15;;
23242;SDS011;11790;49.578;11.214;2022-07-23T02:45:57;12.80;;;9.90;;
23242;SDS011;11790;49.578;11.214;2022-07-23T02:50:57;11.50;;;9.48;;
23242;SDS011;11790;49.578;11.214;2022-07-23T02:55:57;12.98;;;9.63;;
23242;SDS011;11790;49.578;11.214;2022-07-23T03:00:57;13.57;;;10.73;;
23242;SDS011;11790;49.578;11.214;2022-07-23T03:05:58;16.52;;;9.95;;
23242;SDS011;11790;49.578;11.214;2022-07-23T03:10:58;12.87;;;10.40;;
23242;SDS011;11790;49.578;11.214;2022-07-23T03:15:58;12.82;;;10.10;;
23242;SDS011;11790;49.578;11.214;2022-07-23T03:20:59;16.02;;;10.15;;
23242;SDS011;11790;49.578;11.214;2022-07-23T03:25:59;14.90;;;10.23;;
23242;SDS011;11790;49.578;11.214;2022-07-23T03:30:59;13.38;;;9.88;;
23242;SDS011;11790;49.578;11.214;2022-07-23T03:35:59;14.70;;;10.70;;
23242;SDS011;11790;49.578;11.214;2022-07-23T03:41:01;14.32;;;10.93;;
23242;SDS011;11790;49.578;11.214;2022-07-23T03:46:01;16.17;;;11.05;;
23242;SDS011;11790;49.578;11.214;2022-07-23T03:51:02;15.32;;;10.77;;
23242;SDS011;11790;49.578;11.214;2022-07-23T03:56:02;12.75;;;10.88;;
23242;SDS011;11790;49.578;11.214;2022-07-23T04:01:02;16.77;;;10.50;;
23242;SDS011;11790;49.578;11.214;2022-07-23T04:06:03;12.95;;;10.48;;
23242;SDS011;11790;49.578;11.214;2022-07-23T04:11:03;15.20;;;10.88;;
23242;SDS011;11790;49.578;11.214;2022-07-23T04:16:03;12.75;;;10.43;;
23242;SDS011;11790;49.578;11.214;2022-07-23T04:21:04;13.60;;;11.25;;
23242;SDS011;11790;49.578;11.214;2022-07-23T04:26:04;15.80;;;11.97;;
23242;SDS011;11790;49.578;11.214;2022-07-23T04:31:04;15.10;;;10.70;;
23242;SDS011;11790;49.578;11.214;2022-07-23T04:36:04;15.25;;;11.18;;
23242;SDS011;11790;49.578;11.214;2022-07-23T04:41:05;12.60;;;9.93;;
23242;SDS011;11790;49.578;11.214;2022-07-23T04:46:05;15.98;;;9.85;;
23242;SDS011;11790;49.578;11.214;2022-07-23T04:51:06;12.38;;;10.60;;
23242;SDS011;11790;49.578;11.214;2022-07-23T04:56:06;12.88;;;10.27;;
23242;SDS011;11790;49.578;11.214;2022-07-23T05:01:06;14.37;;;10.20;;
23242;SDS011;11790;49.578;11.214;2022-07-23T05:06:07;13.00;;;10.07;;
23242;SDS011;11790;49.578;11.214;2022-07-23T05:11:07;14.73;;;10.03;;
23242;SDS011;11790;49.578;11.214;2022-07-23T05:16:07;13.18;;;10.05;;
23242;SDS011;11790;49.578;11.214;2022-07-23T05:21:07;13.90;;;10.40;;
23242;SDS011;11790;49.578;11.214;2022-07-23T05:26:08;14.30;;;9.90;;
23242;SDS011;11790;49.578;11.214;2022-07-23T05:31:08;11.05;;;9.32;;
23242;SDS011;11790;49.578;11.214;2022-07-23T05:36:08;10.32;;;9.23;;
23242;SDS011;11790;49.578;11.214;2022-07-23T05:41:09;11.27;;;8.85;;
23242;SDS011;11790;49.578;11.214;2022-07-23T05:46:09;10.32;;;8.90;;
23242;SDS011;11790;49.578;11.214;2022-07-23T05:51:09;9.52;;;8.52;;
23242;SDS011;11790;49.578;11.214;2022-07-23T05:56:09;10.48;;;7.82;;
23242;SDS011;11790;49.578;11.214;2022-07-23T06:01:10;9.63;;;7.28;;
23242;SDS011;11790;49.578;11.214;2022-07-23T06:06:11;7.18;;;6.40;;
23242;SDS011;11790;49.578;11.214;2022-07-23T06:11:12;6.83;;;5.67;;
23242;SDS011;11790;49.578;11.214;2022-07-23T06:16:12;6.72;;;5.75;;
23242;SDS011;11790;49.578;11.214;2022-07-23T06:21:12;8.55;;;5.93;;
23242;SDS011;11790;49.578;11.214;2022-07-23T06:26:12;6.35;;;5.53;;
23242;SDS011;11790;49.578;11.214;2022-07-23T06:31:13;6.47;;;5.30;;
23242;SDS011;11790;49.578;11.214;2022-07-23T06:36:13;5.63;;;4.85;;
23242;SDS011;11790;49.578;11.214;2022-07-23T06:41:13;5.75;;;4.50;;
23242;SDS011;11790;49.578;11.214;2022-07-23T06:46:13;5.95;;;4.60;;
23242;SDS011;11790;49.578;11.214;2022-07-23T06:51:13;5.80;;;5.07;;
23242;SDS011;11790;49.578;11.214;2022-07-23T06:56:14;6.43;;;4.57;;
23242;SDS011;11790;49.578;11.214;2022-07-23T07:01:14;5.60;;;4.28;;
23242;SDS011;11790;49.578;11.214;2022-07-23T07:06:14;5.57;;;4.32;;
23242;SDS011;11790;49.578;11.214;2022-07-23T07:11:14;6.40;;;4.82;;
23242;SDS011;11790;49.578;11.214;2022-07-23T07:16:15;5.28;;;4.75;;
23242;SDS011;11790;49.578;11.214;2022-07-23T07:21:15;19.75;;;4.80;;
23242;SDS011;11790;49.578;11.214;2022-07-23T07:26:15;6.32;;;5.20;;
23242;SDS011;11790;49.578;11.214;2022-07-23T07:31:15;6.20;;;4.32;;
23242;SDS011;11790;49.578;11.214;2022-07-23T07:36:16;6.47;;;4.57;;
23242;SDS011;11790;49.578;11.214;2022-07-23T07:41:16;6.50;;;4.82;;
23242;SDS011;11790;49.578;11.214;2022-07-23T07:46:16;8.27;;;5.18;;
23242;SDS011;11790;49.578;11.214;2022-07-23T07:51:17;5.93;;;5.32;;
23242;SDS011;11790;49.578;11.214;2022-07-23T07:56:17;7.72;;;5.50;;
23242;SDS011;11790;49.578;11.214;2022-07-23T08:01:17;5.88;;;5.28;;
23242;SDS011;11790;49.578;11.214;2022-07-23T08:06:19;6.20;;;5.40;;
23242;SDS011;11790;49.578;11.214;2022-07-23T08:11:19;7.47;;;5.00;;
23242;SDS011;11790;49.578;11.214;2022-07-23T08:16:20;11.43;;;5.53;;
23242;SDS011;11790;49.578;11.214;2022-07-23T08:21:20;9.23;;;5.78;;
23242;SDS011;11790;49.578;11.214;2022-07-23T08:26:20;6.47;;;5.17;;
23242;SDS011;11790;49.578;11.214;2022-07-23T08:31:21;56.47;;;7.60;;
23242;SDS011;11790;49.578;11.214;2022-07-23T08:36:21;11.30;;;5.78;;
23242;SDS011;11790;49.578;11.214;2022-07-23T08:41:21;7.85;;;5.65;;
23242;SDS011;11790;49.578;11.214;2022-07-23T08:46:21;145.07;;;19.90;;
23242;SDS011;11790;49.578;11.214;2022-07-23T08:51:23;9.68;;;5.55;;
23242;SDS011;11790;49.578;11.214;2022-07-23T08:56:25;8.55;;;6.03;;
23242;SDS011;11790;49.578;11.214;2022-07-23T09:01:25;8.35;;;6.05;;
23242;SDS011;11790;49.578;11.214;2022-07-23T09:06:25;7.47;;;6.00;;
23242;SDS011;11790;49.578;11.214;2022-07-23T09:11:26;11.63;;;6.18;;
23242;SDS011;11790;49.578;11.214;2022-07-23T09:16:27;7.47;;;6.35;;
23242;SDS011;11790;49.578;11.214;2022-07-23T09:21:29;8.90;;;7.03;;
23242;SDS011;11790;49.578;11.214;2022-07-23T09:26:37;8.60;;;6.25;;
23242;SDS011;11790;49.578;11.214;2022-07-23T09:31:56;9.20;;;6.72;;
23242;SDS011;11790;49.578;11.214;2022-07-23T09:36:57;19.92;;;7.95;;
23242;SDS011;11790;49.578;11.214;2022-07-23T09:42:11;9.70;;;6.65;;
23242;SDS011;11790;49.578;11.214;2022-07-23T09:47:12;8.80;;;6.82;;
23242;SDS011;11790;49.578;11.214;2022-07-23T09:52:12;9.70;;;6.65;;
23242;SDS011;11790;49.578;11.214;2022-07-23T09:57:25;9.88;;;6.70;;
23242;SDS011;11790;49.578;11.214;2022-07-23T10:02:27;7.47;;;6.22;;
23242;SDS011;11790;49.578;11.214;2022-07-23T10:07:27;8.60;;;6.88;;
23242;SDS011;11790;49.578;11.214;2022-07-23T10:12:31;7.88;;;5.93;;
23242;SDS011;11790;49.578;11.214;2022-07-23T10:17:53;8.38;;;6.63;;
23242;SDS011;11790;49.578;11.214;2022-07-23T10:23:05;11.48;;;6.85;;
23242;SDS011;11790;49.578;11.214;2022-07-23T10:28:15;7.68;;;6.15;;
23242;SDS011;11790;49.578;11.214;2022-07-23T10:33:26;8.05;;;6.32;;
23242;SDS011;11790;49.578;11.214;2022-07-23T10:38:32;8.13;;;6.35;;
23242;SDS011;11790;49.578;11.214;2022-07-23T10:43:34;12.90;;;7.00;;
23242;SDS011;11790;49.578;11.214;2022-07-23T10:48:34;8.97;;;6.90;;
23242;SDS011;11790;49.578;11.214;2022-07-23T10:54:09;8.13;;;6.63;;
23242;SDS011;11790;49.578;11.214;2022-07-23T10:59:04;8.23;;;6.90;;
23242;SDS011;11790;49.578;11.214;2022-07-23T11:04:04;8.63;;;6.93;;
23242;SDS011;11790;49.578;11.214;2022-07-23T11:25:04;8.20;;;6.38;;
23242;SDS011;11790;49.578;11.214;2022-07-23T11:30:05;8.05;;;6.18;;
23242;SDS011;11790;49.578;11.214;2022-07-23T11:35:26;7.75;;;6.18;;
23242;SDS011;11790;49.578;11.214;2022-07-23T11:40:27;8.45;;;6.88;;
23242;SDS011;11790;49.578;11.214;2022-07-23T11:45:48;7.18;;;5.95;;
23242;SDS011;11790;49.578;11.214;2022-07-23T11:50:49;6.75;;;5.65;;
23242;SDS011;11790;49.578;11.214;2022-07-23T11:55:50;8.15;;;6.40;;
23242;SDS011;11790;49.578;11.214;2022-07-23T12:00:51;6.22;;;5.55;;
23242;SDS011;11790;49.578;11.214;2022-07-23T12:05:56;7.45;;;5.57;;
23242;SDS011;11790;49.578;11.214;2022-07-23T12:10:56;7.53;;;5.97;;
23242;SDS011;11790;49.578;11.214;2022-07-23T12:15:56;7.95;;;5.80;;
23242;SDS011;11790;49.578;11.214;2022-07-23T12:20:57;6.80;;;6.10;;
23242;SDS011;11790;49.578;11.214;2022-07-23T12:26:00;8.10;;;5.70;;
23242;SDS011;11790;49.578;11.214;2022-07-23T12:31:01;6.57;;;5.15;;
23242;SDS011;11790;49.578;11.214;2022-07-23T12:36:03;6.73;;;5.50;;
23242;SDS011;11790;49.578;11.214;2022-07-23T12:41:06;6.43;;;5.40;;
23242;SDS011;11790;49.578;11.214;2022-07-23T12:46:07;7.20;;;5.43;;
23242;SDS011;11790;49.578;11.214;2022-07-23T12:51:17;7.60;;;5.32;;
23242;SDS011;11790;49.578;11.214;2022-07-23T12:56:22;6.18;;;5.53;;
23242;SDS011;11790;49.578;11.214;2022-07-23T13:01:35;5.88;;;5.05;;
23242;SDS011;11790;49.578;11.214;2022-07-23T13:06:46;5.80;;;5.20;;
23242;SDS011;11790;49.578;11.214;2022-07-23T13:11:47;7.38;;;4.80;;
23242;SDS011;11790;49.578;11.214;2022-07-23T13:16:49;5.20;;;4.70;;
23242;SDS011;11790;49.578;11.214;2022-07-23T13:21:50;5.50;;;4.18;;
23242;SDS011;11790;49.578;11.214;2022-07-23T13:26:50;4.63;;;4.22;;
23242;SDS011;11790;49.578;11.214;2022-07-23T13:31:50;4.30;;;3.73;;
23242;SDS011;11790;49.578;11.214;2022-07-23T13:36:51;5.38;;;4.20;;
23242;SDS011;11790;49.578;11.214;2022-07-23T13:41:51;4.82;;;4.38;;
23242;SDS011;11790;49.578;11.214;2022-07-23T13:46:51;5.07;;;3.97;;
23242;SDS011;11790;49.578;11.214;2022-07-23T13:51:51;5.30;;;4.55;;
23242;SDS011;11790;49.578;11.214;2022-07-23T13:56:51;6.47;;;4.63;;
23242;SDS011;11790;49.578;11.214;2022-07-23T14:01:52;8.02;;;4.50;;
23242;SDS011;11790;49.578;11.214;2022-07-23T14:06:52;5.30;;;4.57;;
23242;SDS011;11790;49.578;11.214;2022-07-23T14:11:53;5.40;;;4.35;;
23242;SDS011;11790;49.578;11.214;2022-07-23T14:16:53;8.50;;;5.00;;
23242;SDS011;11790;49.578;11.214;2022-07-23T14:21:54;5.88;;;5.28;;
23242;SDS011;11790;49.578;11.214;2022-07-23T14:26:54;5.78;;;5.15;;
23242;SDS011;11790;49.578;11.214;2022-07-23T14:31:55;5.57;;;4.90;;
23242;SDS011;11790;49.578;11.214;2022-07-23T14:36:55;6.47;;;5.10;;
23242;SDS011;11790;49.578;11.214;2022-07-23T14:41:56;5.43;;;4.93;;
23242;SDS011;11790;49.578;11.214;2022-07-23T14:46:56;5.82;;;5.10;;
23242;SDS011;11790;49.578;11.214;2022-07-23T14:51:57;5.23;;;4.73;;
23242;SDS011;11790;49.578;11.214;2022-07-23T14:56:58;6.00;;;4.97;;
23242;SDS011;11790;49.578;11.214;2022-07-23T15:01:59;5.55;;;4.88;;
23242;SDS011;11790;49.578;11.214;2022-07-23T15:06:59;9.55;;;4.55;;
23242;SDS011;11790;49.578;11.214;2022-07-23T15:11:59;4.90;;;4.47;;
23242;SDS011;11790;49.578;11.214;2022-07-23T15:16:59;5.15;;;4.65;;
23242;SDS011;11790;49.578;11.214;2022-07-23T15:21:59;5.80;;;4.07;;
23242;SDS011;11790;49.578;11.214;2022-07-23T15:27:00;9.32;;;4.72;;
23242;SDS011;11790;49.578;11.214;2022-07-23T15:32:00;6.90;;;4.70;;
23242;SDS011;11790;49.578;11.214;2022-07-23T15:37:01;5.40;;;4.38;;
23242;SDS011;11790;49.578;11.214;2022-07-23T15:42:02;4.93;;;4.53;;
23242;SDS011;11790;49.578;11.214;2022-07-23T15:47:02;5.13;;;4.63;;
23242;SDS011;11790;49.578;11.214;2022-07-23T15:52:02;4.90;;;4.38;;
23242;SDS011;11790;49.578;11.214;2022-07-23T15:57:03;5.67;;;4.60;;
23242;SDS011;11790;49.578;11.214;2022-07-23T16:02:04;5.10;;;4.53;;
23242;SDS011;11790;49.578;11.214;2022-07-23T16:07:04;6.70;;;4.93;;
23242;SDS011;11790;49.578;11.214;2022-07-23T16:12:04;7.05;;;4.55;;
23242;SDS011;11790;49.578;11.214;2022-07-23T16:17:05;10.47;;;4.80;;
23242;SDS011;11790;49.578;11.214;2022-07-23T16:22:05;5.80;;;5.07;;
23242;SDS011;11790;49.578;11.214;2022-07-23T16:27:05;8.48;;;4.95;;
23242;SDS011;11790;49.578;11.214;2022-07-23T16:32:05;18.27;;;10.63;;
23242;SDS011;11790;49.578;11.214;2022-07-23T16:37:07;7.20;;;5.80;;
23242;SDS011;11790;49.578;11.214;2022-07-23T16:42:08;7.63;;;5.43;;
23242;SDS011;11790;49.578;11.214;2022-07-23T16:47:08;7.40;;;4.80;;
23242;SDS011;11790;49.578;11.214;2022-07-23T16:52:09;5.93;;;4.72;;
23242;SDS011;11790;49.578;11.214;2022-07-23T16:57:09;6.65;;;4.60;;
23242;SDS011;11790;49.578;11.214;2022-07-23T17:02:09;6.72;;;5.00;;
23242;SDS011;11790;49.578;11.214;2022-07-23T17:07:11;7.88;;;5.18;;
23242;SDS011;11790;49.578;11.214;2022-07-23T17:12:11;6.25;;;4.20;;
23242;SDS011;11790;49.578;11.214;2022-07-23T17:17:11;5.65;;;4.53;;
23242;SDS011;11790;49.578;11.214;2022-07-23T17:22:12;7.13;;;4.63;;
23242;SDS011;11790;49.578;11.214;2022-07-23T17:27:12;5.45;;;4.95;;
23242;SDS011;11790;49.578;11.214;2022-07-23T17:32:12;7.50;;;5.88;;
23242;SDS011;11790;49.578;11.214;2022-07-23T17:37:12;6.90;;;4.60;;
23242;SDS011;11790;49.578;11.214;2022-07-23T17:42:13;5.90;;;4.60;;
23242;SDS011;11790;49.578;11.214;2022-07-23T17:47:13;8.30;;;4.60;;
23242;SDS011;11790;49.578;11.214;2022-07-23T17:52:13;6.15;;;4.45;;
23242;SDS011;11790;49.578;11.214;2022-07-23T17:57:13;5.90;;;4.88;;
23242;SDS011;11790;49.578;11.214;2022-07-23T18:02:13;5.60;;;4.40;;
23242;SDS011;11790;49.578;11.214;2022-07-23T18:07:14;5.82;;;4.70;;
23242;SDS011;11790;49.578;11.214;2022-07-23T18:12:14;4.97;;;4.35;;
23242;SDS011;11790;49.578;11.214;2022-07-23T18:17:15;5.80;;;4.28;;
23242;SDS011;11790;49.578;11.214;2022-07-23T18:22:15;5.88;;;5.00;;
23242;SDS011;11790;49.578;11.214;2022-07-23T18:27:16;4.95;;;4.22;;
23242;SDS011;11790;49.578;11.214;2022-07-23T18:32:16;5.00;;;4.45;;
23242;SDS011;11790;49.578;11.214;2022-07-23T18:37:16;5.28;;;4.13;;
23242;SDS011;11790;49.578;11.214;2022-07-23T18:42:16;5.38;;;4.65;;
23242;SDS011;11790;49.578;11.214;2022-07-23T18:47:17;6.32;;;4.90;;
23242;SDS011;11790;49.578;11.214;2022-07-23T18:52:17;5.67;;;4.77;;
23242;SDS011;11790;49.578;11.214;2022-07-23T18:57:17;5.15;;;4.55;;
23242;SDS011;11790;49.578;11.214;2022-07-23T19:02:18;5.67;;;4.83;;
23242;SDS011;11790;49.578;11.214;2022-07-23T19:07:18;5.47;;;4.63;;
23242;SDS011;11790;49.578;11.214;2022-07-23T19:12:19;5.70;;;4.85;;
23242;SDS011;11790;49.578;11.214;2022-07-23T19:17:20;6.13;;;4.63;;
23242;SDS011;11790;49.578;11.214;2022-07-23T19:22:20;6.18;;;4.97;;
23242;SDS011;11790;49.578;11.214;2022-07-23T19:27:20;7.10;;;5.65;;
23242;SDS011;11790;49.578;11.214;2022-07-23T19:32:20;8.07;;;5.15;;
23242;SDS011;11790;49.578;11.214;2022-07-23T19:37:21;6.47;;;5.28;;
23242;SDS011;11790;49.578;11.214;2022-07-23T19:42:21;8.43;;;5.40;;
23242;SDS011;11790;49.578;11.214;2022-07-23T19:47:24;7.97;;;5.75;;
23242;SDS011;11790;49.578;11.214;2022-07-23T19:52:27;5.95;;;5.38;;
23242;SDS011;11790;49.578;11.214;2022-07-23T19:57:28;6.72;;;5.72;;
23242;SDS011;11790;49.578;11.214;2022-07-23T20:02:28;8.98;;;6.35;;
23242;SDS011;11790;49.578;11.214;2022-07-23T20:07:28;7.95;;;5.90;;
23242;SDS011;11790;49.578;11.214;2022-07-23T20:12:29;8.63;;;6.25;;
23242;SDS011;11790;49.578;11.214;2022-07-23T20:17:29;8.77;;;6.78;;
23242;SDS011;11790;49.578;11.214;2022-07-23T20:22:29;8.02;;;6.68;;
23242;SDS011;11790;49.578;11.214;2022-07-23T20:27:29;9.30;;;7.07;;
23242;SDS011;11790;49.578;11.214;2022-07-23T20:32:29;8.07;;;6.60;;
23242;SDS011;11790;49.578;11.214;2022-07-23T20:37:30;7.93;;;7.13;;
23242;SDS011;11790;49.578;11.214;2022-07-23T20:42:30;9.25;;;7.65;;
23242;SDS011;11790;49.578;11.214;2022-07-23T20:47:30;9.85;;;7.32;;
23242;SDS011;11790;49.578;11.214;2022-07-23T20:52:30;12.87;;;7.83;;
23242;SDS011;11790;49.578;11.214;2022-07-23T20:57:30;7.60;;;6.47;;
23242;SDS011;11790;49.578;11.214;2022-07-23T21:02:31;9.57;;;7.88;;
23242;SDS011;11790;49.578;11.214;2022-07-23T21:07:31;9.73;;;7.22;;
23242;SDS011;11790;49.578;11.214;2022-07-23T21:12:31;8.38;;;7.28;;
23242;SDS011;11790;49.578;11.214;2022-07-23T21:17:31;11.15;;;7.80;;
23242;SDS011;11790;49.578;11.214;2022-07-23T21:22:32;9.38;;;7.38;;
23242;SDS011;11790;49.578;11.214;2022-07-23T21:27:32;10.88;;;7.93;;
23242;SDS011;11790;49.578;11.214;2022-07-23T21:32:32;9.53;;;7.07;;
23242;SDS011;11790;49.578;11.214;2022-07-23T21:37:33;8.90;;;7.75;;
23242;SDS011;11790;49.578;11.214;2022-07-23T21:42:33;9.82;;;8.00;;
23242;SDS011;11790;49.578;11.214;2022-07-23T21:47:33;9.35;;;7.85;;
23242;SDS011;11790;49.578;11.214;2022-07-23T21:52:34;12.43;;;7.90;;
23242;SDS011;11790;49.578;11.214;2022-07-23T21:57:34;13.40;;;8.00;;
23242;SDS011;11790;49.578;11.214;2022-07-23T22:02:35;9.73;;;7.68;;
23242;SDS011;11790;49.578;11.214;2022-07-23T22:07:35;9.13;;;7.88;;
23242;SDS011;11790;49.578;11.214;2022-07-23T22:12:35;9.68;;;7.63;;
23242;SDS011;11790;49.578;11.214;2022-07-23T22:17:35;14.48;;;8.27;;
23242;SDS011;11790;49.578;11.214;2022-07-23T22:22:42;14.13;;;10.33;;
23242;SDS011;11790;49.578;11.214;2022-07-23T22:27:43;14.25;;;9.10;;
23242;SDS011;11790;49.578;11.214;2022-07-23T22:32:43;11.47;;;9.03;;
23242;SDS011;11790;49.578;11.214;2022-07-23T22:37:44;12.77;;;8.93;;
23242;SDS011;11790;49.578;11.214;2022-07-23T22:42:45;11.20;;;8.00;;
23242;SDS011;11790;49.578;11.214;2022-07-23T22:47:45;9.43;;;8.25;;
23242;SDS011;11790;49.578;11.214;2022-07-23T22:52:45;14.20;;;10.13;;
23242;SDS011;11790;49.578;11.214;2022-07-23T22:57:45;14.10;;;10.65;;
23242;SDS011;11790;49.578;11.214;2022-07-23T23:02:46;12.90;;;10.27;;
23242;SDS011;11790;49.578;11.214;2022-07-23T23:07:46;13.90;;;10.13;;
23242;SDS011;11790;49.578;11.214;2022-07-23T23:12:46;14.50;;;9.73;;
23242;SDS011;11790;49.578;11.214;2022-07-23T23:17:47;13.48;;;9.73;;
23242;SDS011;11790;49.578;11.214;2022-07-23T23:22:47;14.45;;;10.05;;
23242;SDS011;11790;49.578;11.214;2022-07-23T23:27:47;17.02;;;10.02;;
23242;SDS011;11790;49.578;11.214;2022-07-23T23:32:47;12.73;;;9.47;;
23242;SDS011;11790;49.578;11.214;2022-07-23T23:37:48;12.88;;;10.35;;
23242;SDS011;11790;49.578;11.214;2022-07-23T23:42:48;13.98;;;10.43;;
23242;SDS011;11790;49.578;11.214;2022-07-23T23:47:48;12.15;;;9.70;;
23242;SDS011;11790;49.578;11.214;2022-07-23T23:52:48;12.32;;;8.75;;
23242;SDS011;11790;49.578;11.214;2022-07-23T23:57:48;14.45;;;9.80;;
